createdAt,value
2019-04-22T00:03:06.818Z,101725.44
2019-04-22T00:09:30.938Z,101723.41
2019-04-22T00:15:56.518Z,101715.20
2019-04-22T00:39:44.690Z,101705.44
2019-04-22T00:46:31.816Z,101704.69
2019-04-22T00:49:49.029Z,101704.34
2019-04-22T00:52:12.466Z,101700.46
2019-04-22T01:25:56.621Z,101689.78
2019-04-22T01:59:25.693Z,101692.23
2019-04-22T02:02:49.295Z,101684.32
2019-04-22T02:09:17.707Z,101687.49
2019-04-22T02:26:01.168Z,101679.70
2019-04-22T02:32:59.069Z,101673.55
2019-04-22T02:46:42.986Z,101661.41
2019-04-22T03:06:16.418Z,101599.98
2019-04-22T03:25:53.570Z,101631.31
2019-04-22T03:32:33.457Z,101625.18
2019-04-22T03:39:04.192Z,101630.14
2019-04-22T03:48:38.385Z,101624.55
2019-04-22T03:55:15.736Z,101629.42
2019-04-22T04:04:59.459Z,101618.52
2019-04-22T05:34:29.168Z,101606.02
2019-04-22T05:40:48.454Z,101606.41
2019-04-22T05:54:54.917Z,101603.55
2019-04-22T06:04:05.380Z,101604.64
2019-04-22T06:10:48.628Z,101611.65
2019-04-22T06:27:21.908Z,101617.80
2019-04-22T06:29:55.328Z,101611.25
2019-04-22T06:32:40.121Z,101612.25
2019-04-22T06:39:12.915Z,101618.69
2019-04-22T06:44:22.642Z,101614.30
2019-04-22T06:46:52.351Z,101616.27
2019-04-22T06:49:31.897Z,101608.84
2019-04-22T06:52:05.998Z,101607.25
2019-04-22T06:54:35.972Z,101611.17
2019-04-22T06:57:06.183Z,101615.75
2019-04-22T06:59:53.700Z,101617.65
2019-04-22T07:02:54.207Z,101620.47
2019-04-22T07:05:17.970Z,101614.44
2019-04-22T07:07:51.908Z,101610.85
2019-04-22T07:10:28.534Z,101615.45
2019-04-22T07:12:52.307Z,101611.14
2019-04-22T07:15:42.392Z,101604.52
2019-04-22T07:21:27.705Z,101612.98
2019-04-22T07:26:59.839Z,101610.05
2019-04-22T07:29:35.318Z,101608.07
2019-04-22T07:32:07.864Z,101605.66
2019-04-22T07:34:50.330Z,101601.42
2019-04-22T07:39:45.780Z,101606.87
2019-04-22T07:42:19.249Z,101613.16
2019-04-22T07:44:53.190Z,101609.72
2019-04-22T07:47:29.542Z,101618.17
2019-04-22T07:49:51.042Z,101612.45
2019-04-22T07:52:24.592Z,101615.36
2019-04-22T07:54:59.573Z,101611.97
2019-04-22T07:57:31.101Z,101611.48
2019-04-22T08:00:04.146Z,101612.14
2019-04-22T08:02:32.746Z,101598.22
2019-04-22T08:05:05.441Z,101600.69
2019-04-22T08:10:17.219Z,101589.91
2019-04-22T08:13:05.401Z,101590.50
2019-04-22T08:15:41.500Z,101590.50
2019-04-22T08:18:15.607Z,101592.09
2019-04-22T08:20:58.455Z,101594.16
2019-04-22T08:23:37.930Z,101589.75
2019-04-22T08:25:47.450Z,101594.58
2019-04-22T08:31:02.043Z,101590.05
2019-04-22T08:33:38.213Z,101592.19
2019-04-22T13:10:51.606Z,101594.16
2019-04-22T13:29:39.270Z,101315.48
2019-04-22T13:32:13.163Z,101288.97
2019-04-22T13:34:55.906Z,101288.97
2019-04-22T13:43:38.806Z,101275.23
2019-04-22T13:45:19.870Z,101254.09
2019-04-22T13:48:11.480Z,101259.75
2019-04-22T13:59:10.347Z,101267.61
2019-04-22T14:05:10.586Z,101251.72
2019-04-22T14:07:44.458Z,101241.48
2019-04-22T14:10:16.500Z,101244.52
2019-04-22T14:12:48.772Z,101238.11
2019-04-22T14:15:43.862Z,101234.63
2019-04-22T14:18:18.960Z,101235.64
2019-04-22T14:21:02.859Z,101239.27
2019-04-22T14:23:40.525Z,101234.72
2019-04-22T14:26:27.105Z,101235.84
2019-04-22T14:29:31.399Z,101222.22
2019-04-22T14:32:31.292Z,101221.10
2019-04-22T14:35:04.964Z,101215.25
2019-04-22T14:38:01.521Z,101222.98
2019-04-22T14:40:51.906Z,101221.34
2019-04-22T14:43:59.948Z,101215.41
2019-04-22T14:46:39.002Z,101215.08
2019-04-22T14:49:34.100Z,101211.41
2019-04-22T14:52:05.253Z,101204.44
2019-04-22T14:54:31.309Z,101211.20
2019-04-22T14:56:52.042Z,101212.22
2019-04-22T14:59:22.878Z,101202.22
2019-04-22T15:01:58.142Z,101199.08
2019-04-22T15:04:35.108Z,101197.06
2019-04-22T15:07:49.904Z,101193.19
2019-04-22T15:09:52.347Z,101201.61
2019-04-22T15:12:56.569Z,101198.36
2019-04-22T15:16:15.944Z,101188.70
2019-04-22T15:18:55.769Z,101187.50
2019-04-22T15:21:27.217Z,101201.55
2019-04-22T15:23:58.848Z,101187.73
2019-04-22T15:26:38.218Z,101169.78
2019-04-22T15:29:11.301Z,101174.08
2019-04-22T15:31:51.357Z,101169.06
2019-04-22T15:34:20.746Z,101181.99
2019-04-22T15:36:58.082Z,101180.59
2019-04-22T15:39:33.927Z,101181.94
2019-04-22T15:42:19.937Z,101183.49
2019-04-22T15:44:48.043Z,101178.91
2019-04-22T15:47:18.860Z,101170.69
2019-04-22T15:53:41.752Z,101174.08
2019-04-22T15:56:12.549Z,101166.10
2019-04-22T15:58:41.986Z,101174.95
2019-04-22T16:01:19.305Z,101158.19
2019-04-22T16:03:44.754Z,101166.09
2019-04-22T16:06:26.183Z,101166.67
2019-04-22T16:09:33.184Z,101169.86
2019-04-22T16:12:27.200Z,101166.19
2019-04-22T16:14:53.522Z,101161.75
2019-04-22T16:27:36.334Z,101151.38
2019-04-22T16:30:13.111Z,101172.06
2019-04-22T16:36:30.957Z,101159.08
2019-04-22T16:42:58.146Z,101161.75
2019-04-22T16:45:29.745Z,101153.29
2019-04-22T16:48:04.068Z,101157.95
2019-04-22T16:50:36.525Z,101149.66
2019-04-22T16:53:06.162Z,101160.30
2019-04-22T16:58:16.652Z,101150.02
2019-04-22T17:00:49.777Z,101161.52
2019-04-22T17:06:35.456Z,101151.23
2019-04-22T17:09:14.197Z,101152.98
2019-04-22T17:11:41.928Z,101153.08
2019-04-22T17:14:30.511Z,101147.69
2019-04-22T17:19:51.398Z,101145.28
2019-04-22T17:26:03.187Z,101145.70
2019-04-22T17:28:33.465Z,101144.45
2019-04-22T17:31:04.679Z,101164.23
2019-04-22T17:33:42.763Z,101157.75
2019-04-22T17:36:09.358Z,101149.48
2019-04-22T17:38:52.014Z,101149.48
2019-04-22T17:41:33.115Z,101157.56
2019-04-22T17:44:21.779Z,101157.56
2019-04-22T17:46:55.029Z,101155.65
2019-04-22T17:49:48.615Z,101160.46
2019-04-22T17:52:21.116Z,101158.32
2019-04-22T17:54:50.279Z,101151.09
2019-04-22T17:57:24.059Z,101156.73
2019-04-22T17:59:53.953Z,101153.47
2019-04-22T18:02:24.638Z,101157.48
2019-04-22T18:04:46.005Z,101165.55
2019-04-22T18:07:35.570Z,101165.73
2019-04-22T18:12:53.793Z,101162.39
2019-04-22T18:15:22.767Z,101166.13
2019-04-22T18:17:55.688Z,101173.21
2019-04-22T18:20:20.603Z,101167.23
2019-04-22T18:22:41.742Z,101172.98
2019-04-22T18:25:17.644Z,101167.64
2019-04-22T18:28:00.714Z,101173.45
2019-04-22T18:30:24.278Z,101180.06
2019-04-22T18:33:19.068Z,101177.16
2019-04-22T18:35:46.799Z,101176.22
2019-04-22T18:38:44.378Z,101181.07
2019-04-22T18:41:05.010Z,101182.76
2019-04-22T18:43:42.437Z,101178.67
2019-04-22T18:46:26.968Z,101180.28
2019-04-22T18:49:37.373Z,101185.02
2019-04-22T18:52:47.030Z,101181.80
2019-04-22T18:58:25.566Z,101186.03
2019-04-22T19:09:12.016Z,101188.16
2019-04-22T19:24:18.573Z,101212.33
2019-04-22T19:26:59.102Z,101216.42
2019-04-22T19:30:30.058Z,101218.81
2019-04-22T19:33:02.854Z,101228.92
2019-04-22T19:36:20.427Z,101230.24
2019-04-22T19:38:30.094Z,101228.11
2019-04-22T19:42:14.470Z,101232.84
2019-04-22T19:44:50.737Z,101227.62
2019-04-22T19:47:30.599Z,101236.70
2019-04-22T19:50:16.392Z,101246.83
2019-04-22T19:52:43.406Z,101241.00
2019-04-22T19:55:16.830Z,101242.14
2019-04-22T19:57:48.501Z,101247.78
2019-04-22T20:00:37.477Z,101247.53
2019-04-22T20:03:46.391Z,101245.06
2019-04-22T20:06:34.981Z,101247.14
2019-04-22T20:09:13.933Z,101247.05
2019-04-22T20:11:46.541Z,101253.49
2019-04-22T20:14:18.071Z,101249.34
2019-04-22T20:16:43.830Z,101256.61
2019-04-22T20:19:33.170Z,101252.86
2019-04-22T20:22:07.543Z,101257.08
2019-04-22T20:24:29.179Z,101256.46
2019-04-22T20:27:18.706Z,101266.09
2019-04-22T20:29:54.353Z,101266.09
2019-04-22T20:32:21.825Z,101265.00
2019-04-22T20:35:03.000Z,101262.03
2019-04-22T20:37:35.435Z,101264.03
2019-04-22T20:40:05.460Z,101263.78
2019-04-22T20:42:48.916Z,101262.91
2019-04-22T20:45:22.848Z,101255.19
2019-04-22T20:47:42.592Z,101250.31
2019-04-22T20:50:25.021Z,101252.67
2019-04-22T20:53:11.587Z,101255.59
2019-04-22T20:55:41.908Z,101244.27
2019-04-22T20:58:18.024Z,101256.47
2019-04-22T21:00:56.937Z,101249.66
2019-04-22T21:03:22.341Z,101251.33
2019-04-22T21:05:52.578Z,101250.34
2019-04-22T21:08:38.886Z,101261.25
2019-04-22T21:10:57.848Z,101256.61
2019-04-22T21:13:28.070Z,101248.87
2019-04-22T21:16:08.983Z,101254.53
2019-04-22T21:18:32.863Z,101255.97
2019-04-22T21:21:16.542Z,101247.23
2019-04-22T21:23:33.949Z,101247.80
2019-04-22T21:26:13.788Z,101247.80
2019-04-22T21:28:42.953Z,101244.66
2019-04-22T21:31:19.314Z,101236.16
2019-04-22T21:33:47.160Z,101241.31
2019-04-22T21:36:26.408Z,101239.75
2019-04-22T21:38:52.010Z,101232.68
2019-04-22T21:41:20.404Z,101231.52
2019-04-22T21:43:54.766Z,101234.00
2019-04-22T21:46:23.223Z,101224.31
2019-04-22T21:48:57.817Z,101226.64
2019-04-22T21:51:32.837Z,101223.70
2019-04-22T21:54:06.789Z,101224.75
2019-04-22T21:59:07.968Z,101219.41
2019-04-22T22:01:52.561Z,101211.69
2019-04-22T22:04:17.432Z,101209.89
2019-04-22T22:06:38.010Z,101212.30
2019-04-22T22:09:22.148Z,101211.23
2019-04-22T22:11:44.497Z,101195.44
2019-04-22T22:14:18.069Z,101195.09
2019-04-22T22:16:43.531Z,101195.64
2019-04-22T22:19:17.803Z,101189.59
2019-04-22T22:24:22.915Z,101187.28
2019-04-22T22:26:57.162Z,101185.28
2019-04-22T22:29:36.933Z,101184.52
2019-04-22T22:32:02.712Z,101179.56
2019-04-22T22:34:43.519Z,101181.94
2019-04-22T22:36:53.011Z,101177.25
2019-04-22T22:39:23.144Z,101173.95
2019-04-22T22:41:44.014Z,101165.53
2019-04-22T22:44:21.144Z,101165.59
2019-04-22T22:47:03.600Z,101161.83
2019-04-22T22:49:45.896Z,101160.62
2019-04-22T22:52:31.093Z,101161.14
2019-04-22T22:54:39.242Z,101146.97
2019-04-22T22:57:19.510Z,101145.72
2019-04-22T22:59:44.121Z,101142.63
2019-04-22T23:02:12.712Z,101143.09
2019-04-22T23:04:48.847Z,101136.88
2019-04-22T23:07:22.746Z,101132.52
2019-04-22T23:09:48.753Z,101138.92
2019-04-22T23:12:34.613Z,101128.89
2019-04-22T23:14:49.821Z,101126.33
2019-04-22T23:17:09.317Z,101128.98
2019-04-22T23:19:40.463Z,101134.15
2019-04-22T23:22:20.714Z,101117.08
2019-04-22T23:24:59.909Z,101127.08
2019-04-22T23:27:44.491Z,101125.76
2019-04-22T23:30:25.221Z,101114.59
2019-04-22T23:33:05.845Z,101120.30
2019-04-22T23:35:52.889Z,101115.16
2019-04-22T23:38:35.771Z,101120.59
2019-04-22T23:41:05.642Z,101114.28
2019-04-22T23:43:42.380Z,101108.63
2019-04-22T23:46:04.309Z,101107.01
2019-04-22T23:48:29.450Z,101111.11
2019-04-22T23:51:09.364Z,101109.44
2019-04-22T23:53:57.260Z,101109.08
2019-04-22T23:56:07.882Z,101111.33
